Time;durP1;ratioP1;P1;durP2;ratioP2;P2;SDS_P1;SDS_P2;PMS_P1;PMS_P2;Temp;Humidity;BMP_temperature;BMP_pressure;BME280_temperature;BME280_humidity;BME280_pressure;Samples;Min_cycle;Max_cycle;Signal;HPM_P1;HPM_P2
2021/03/16 00:01:25;;;;;;;7.22;5.90;;;5.20;1.00;;;;;;4902839;28;20229;-76
2021/03/16 00:03:51;;;;;;;7.05;6.05;;;5.20;1.00;;;;;;4912124;29;20312;-74
2021/03/16 00:06:17;;;;;;;7.15;4.90;;;5.30;1.00;;;;;;4902304;28;21219;-74
2021/03/16 00:08:44;;;;;;;6.13;5.53;;;5.20;1.00;;;;;;4911555;29;20226;-77
2021/03/16 00:11:10;;;;;;;8.25;5.93;;;5.20;1.00;;;;;;4900365;29;20225;-74
2021/03/16 00:13:37;;;;;;;6.50;5.60;;;5.20;1.00;;;;;;4924944;28;20222;-73
2021/03/16 00:16:03;;;;;;;6.30;5.53;;;5.10;1.00;;;;;;4902636;28;20240;-75
2021/03/16 00:18:30;;;;;;;6.28;4.38;;;5.10;1.00;;;;;;4908476;28;20327;-76
2021/03/16 00:20:56;;;;;;;5.43;4.43;;;5.10;1.00;;;;;;4899713;28;20241;-77
2021/03/16 00:23:22;;;;;;;4.63;4.13;;;5.10;1.00;;;;;;4907274;28;20284;-74
2021/03/16 00:25:48;;;;;;;6.57;5.85;;;5.00;1.00;;;;;;4904517;28;20247;-73
2021/03/16 00:28:14;;;;;;;5.22;4.72;;;5.00;1.00;;;;;;4932029;29;20232;-74
2021/03/16 00:30:41;;;;;;;7.35;5.38;;;5.00;1.00;;;;;;4930337;28;20344;-75
2021/03/16 00:33:08;;;;;;;5.85;5.25;;;5.00;1.00;;;;;;4921626;28;20381;-75
2021/03/16 00:35:34;;;;;;;5.65;5.15;;;5.00;1.00;;;;;;4929327;28;20215;-73
2021/03/16 00:38:00;;;;;;;6.10;5.50;;;5.00;1.00;;;;;;4915163;28;20234;-72
2021/03/16 00:40:26;;;;;;;5.97;5.38;;;5.00;1.00;;;;;;4920317;29;20614;-75
2021/03/16 00:42:52;;;;;;;6.32;5.72;;;4.90;1.00;;;;;;4905968;28;20241;-74
2021/03/16 00:45:18;;;;;;;7.53;6.72;;;4.90;1.00;;;;;;4918531;29;20243;-75
2021/03/16 00:47:46;;;;;;;7.75;6.05;;;4.90;1.00;;;;;;4903014;28;20726;-76
2021/03/16 00:50:13;;;;;;;6.93;6.22;;;4.90;1.00;;;;;;4915734;29;20236;-76
2021/03/16 00:52:39;;;;;;;7.10;6.10;;;4.90;1.00;;;;;;4903627;28;20287;-74
2021/03/16 00:55:06;;;;;;;6.20;5.60;;;4.90;1.00;;;;;;4917358;29;20290;-74
2021/03/16 00:57:33;;;;;;;6.72;6.13;;;4.90;1.00;;;;;;4911003;28;20226;-74
2021/03/16 00:59:59;;;;;;;7.93;7.13;;;4.90;1.00;;;;;;4922983;28;20282;-76
2021/03/16 01:02:25;;;;;;;6.80;6.10;;;4.90;1.00;;;;;;4913219;28;20287;-75
2021/03/16 01:04:52;;;;;;;5.40;4.90;;;4.80;1.00;;;;;;4930725;28;20358;-74
2021/03/16 01:07:19;;;;;;;5.15;4.65;;;4.80;1.00;;;;;;4915934;28;20281;-74
2021/03/16 01:09:45;;;;;;;5.75;4.60;;;4.80;1.00;;;;;;4920495;28;20228;-75
2021/03/16 01:12:11;;;;;;;5.97;5.35;;;4.80;1.00;;;;;;4917156;29;20729;-75
2021/03/16 01:14:37;;;;;;;7.82;5.65;;;4.90;1.00;;;;;;4902841;29;20229;-75
2021/03/16 01:17:04;;;;;;;6.03;5.13;;;4.80;1.00;;;;;;4906143;28;20233;-75
2021/03/16 01:19:30;;;;;;;6.25;5.32;;;4.80;1.00;;;;;;4897778;28;21742;-73
2021/03/16 01:21:57;;;;;;;6.50;5.60;;;4.80;1.00;;;;;;4911142;28;20274;-77
2021/03/16 01:24:24;;;;;;;6.05;5.32;;;4.80;1.00;;;;;;4897743;28;20354;-74
2021/03/16 01:26:50;;;;;;;6.65;5.15;;;4.80;1.00;;;;;;4909926;29;20230;-76
2021/03/16 01:29:16;;;;;;;6.00;5.40;;;4.80;1.00;;;;;;4900070;28;20237;-74
2021/03/16 01:31:42;;;;;;;9.40;5.90;;;4.90;1.00;;;;;;4910654;29;20253;-76
2021/03/16 01:34:08;;;;;;;6.07;5.47;;;4.80;1.00;;;;;;4908385;28;20220;-74
2021/03/16 01:36:35;;;;;;;6.70;5.93;;;4.80;1.00;;;;;;4927979;29;20328;-75
2021/03/16 01:39:03;;;;;;;7.03;6.32;;;4.80;1.00;;;;;;4901513;28;20380;-75
2021/03/16 01:41:29;;;;;;;7.70;6.20;;;4.80;1.00;;;;;;4921221;29;20573;-76
2021/03/16 01:43:56;;;;;;;6.65;6.05;;;4.80;1.00;;;;;;4910856;29;21905;-75
2021/03/16 01:46:22;;;;;;;6.70;6.07;;;4.80;1.00;;;;;;4902593;29;21091;-74
2021/03/16 01:48:49;;;;;;;9.10;7.60;;;4.70;1.00;;;;;;4902522;29;21047;-74
2021/03/16 01:51:18;;;;;;;8.82;7.35;;;4.70;1.00;;;;;;4921590;28;21507;-74
2021/03/16 01:53:45;;;;;;;9.95;7.32;;;4.80;1.00;;;;;;4926717;29;20206;-74
2021/03/16 01:56:14;;;;;;;11.27;7.63;;;4.70;1.00;;;;;;4916521;28;20296;-74
2021/03/16 01:58:42;;;;;;;10.35;7.28;;;4.80;1.00;;;;;;4926429;29;20225;-76
2021/03/16 02:01:09;;;;;;;8.95;7.03;;;4.70;1.00;;;;;;4916606;29;20229;-74
2021/03/16 02:03:35;;;;;;;11.88;7.95;;;4.70;1.00;;;;;;4939089;28;20233;-73
2021/03/16 02:06:04;;;;;;;12.65;8.65;;;4.70;1.00;;;;;;4922855;29;20222;-74
2021/03/16 02:08:42;;;;;;;7.85;6.90;;;4.70;1.00;;;;;;4918730;28;20224;-75
2021/03/16 02:11:16;;;;;;;7.93;6.88;;;4.70;1.00;;;;;;4906795;28;20234;-75
2021/03/16 02:13:51;;;;;;;8.85;7.03;;;4.70;1.00;;;;;;4918907;28;20225;-74
2021/03/16 02:16:22;;;;;;;10.07;7.32;;;4.70;1.00;;;;;;4906509;28;20760;-75
2021/03/16 02:18:53;;;;;;;8.75;7.85;;;4.70;1.00;;;;;;4913829;29;20283;-76
2021/03/16 02:21:20;;;;;;;8.80;7.22;;;4.70;1.00;;;;;;4901433;28;20239;-76
2021/03/16 02:23:59;;;;;;;7.18;6.47;;;4.70;1.00;;;;;;4911896;29;20450;-75
2021/03/16 02:26:33;;;;;;;7.10;5.90;;;4.60;1.00;;;;;;4895071;28;21283;-75
2021/03/16 02:29:12;;;;;;;9.15;7.03;;;4.70;1.00;;;;;;4912321;29;20222;-76
2021/03/16 02:31:40;;;;;;;8.30;6.85;;;4.60;1.00;;;;;;4898283;28;20229;-76
2021/03/16 02:34:08;;;;;;;7.10;6.40;;;4.60;1.00;;;;;;4913236;29;20234;-74
2021/03/16 02:36:36;;;;;;;8.32;6.32;;;4.60;1.00;;;;;;4904006;28;20309;-74
2021/03/16 02:39:05;;;;;;;8.15;6.80;;;4.60;1.00;;;;;;4913449;29;20222;-73
2021/03/16 02:41:33;;;;;;;9.00;6.93;;;4.60;1.00;;;;;;4895390;29;20301;-74
2021/03/16 02:43:59;;;;;;;7.22;6.18;;;4.60;1.00;;;;;;4893560;29;20953;-74
2021/03/16 02:46:30;;;;;;;7.47;6.35;;;4.60;1.00;;;;;;4897919;29;21246;-73
2021/03/16 02:48:56;;;;;;;6.80;6.15;;;4.50;1.00;;;;;;4910083;28;20232;-76
2021/03/16 02:51:23;;;;;;;6.88;5.78;;;4.50;1.00;;;;;;4894454;29;20236;-75
2021/03/16 02:53:51;;;;;;;5.70;5.18;;;4.50;1.00;;;;;;4912400;28;20225;-76
2021/03/16 02:56:18;;;;;;;6.70;5.50;;;4.50;1.00;;;;;;4914810;29;20237;-75
2021/03/16 02:58:47;;;;;;;5.60;4.88;;;4.40;1.00;;;;;;4899792;29;21003;-75
2021/03/16 03:01:15;;;;;;;6.88;5.40;;;4.50;1.00;;;;;;4911683;28;20442;-74
2021/03/16 03:03:44;;;;;;;5.25;4.70;;;4.50;1.00;;;;;;4884822;29;20246;-74
2021/03/16 03:06:13;;;;;;;7.45;5.50;;;4.50;1.00;;;;;;4912628;28;20234;-75
2021/03/16 03:08:42;;;;;;;6.63;5.22;;;4.50;1.00;;;;;;4900991;29;21155;-77
2021/03/16 03:11:09;;;;;;;6.40;5.85;;;4.50;1.00;;;;;;4891903;28;20236;-75
2021/03/16 03:13:36;;;;;;;7.28;6.57;;;4.50;1.00;;;;;;4900953;28;21653;-76
2021/03/16 03:16:02;;;;;;;6.20;5.63;;;4.50;1.00;;;;;;4911788;29;20320;-75
2021/03/16 03:18:28;;;;;;;5.93;5.35;;;4.50;1.00;;;;;;4900216;28;20226;-77
2021/03/16 03:20:56;;;;;;;7.07;5.75;;;4.50;1.00;;;;;;4911159;29;20249;-75
2021/03/16 03:23:26;;;;;;;8.60;5.10;;;4.50;1.00;;;;;;4898358;28;20325;-74
2021/03/16 03:25:56;;;;;;;8.30;5.38;;;4.50;1.00;;;;;;4908863;29;20226;-76
2021/03/16 03:28:25;;;;;;;6.40;5.43;;;4.50;1.00;;;;;;4904982;28;20259;-77
2021/03/16 03:30:52;;;;;;;7.25;6.00;;;4.50;1.00;;;;;;4913184;29;20775;-76
2021/03/16 03:33:23;;;;;;;5.63;5.10;;;4.50;1.00;;;;;;4904582;29;21016;-74
2021/03/16 03:35:49;;;;;;;5.82;5.32;;;4.50;1.00;;;;;;4925634;28;20245;-74
2021/03/16 03:38:19;;;;;;;7.15;5.70;;;4.50;1.00;;;;;;4900719;29;20324;-75
2021/03/16 03:40:46;;;;;;;6.55;5.82;;;4.40;1.00;;;;;;4914225;28;20232;-73
2021/03/16 03:43:14;;;;;;;5.72;5.22;;;4.40;1.00;;;;;;4909032;28;20285;-75
2021/03/16 03:45:42;;;;;;;7.40;5.57;;;4.40;1.00;;;;;;4892897;28;20243;-73
2021/03/16 03:48:13;;;;;;;6.97;6.25;;;4.40;1.00;;;;;;4914704;29;20650;-75
2021/03/16 03:50:41;;;;;;;6.35;5.75;;;4.50;1.00;;;;;;4911581;29;20233;-75
2021/03/16 03:53:09;;;;;;;8.27;5.95;;;4.40;1.00;;;;;;4913047;28;20249;-73
2021/03/16 03:55:37;;;;;;;9.13;6.50;;;4.40;1.00;;;;;;4905455;29;20240;-74
2021/03/16 03:58:04;;;;;;;9.55;6.70;;;4.30;1.00;;;;;;4910487;28;20982;-73
2021/03/16 04:00:32;;;;;;;6.43;5.47;;;4.30;1.00;;;;;;4899085;28;21049;-74
2021/03/16 04:03:00;;;;;;;7.80;5.72;;;4.30;1.00;;;;;;4913532;28;20273;-74
2021/03/16 04:05:27;;;;;;;6.57;4.97;;;4.20;1.00;;;;;;4897605;29;20258;-76
2021/03/16 04:07:54;;;;;;;7.28;6.05;;;4.20;1.00;;;;;;4909304;29;20233;-76
2021/03/16 04:10:20;;;;;;;6.18;5.18;;;4.20;1.00;;;;;;4898062;28;20233;-76
2021/03/16 04:12:48;;;;;;;6.22;5.28;;;4.20;1.00;;;;;;4911293;29;20797;-76
2021/03/16 04:15:16;;;;;;;6.50;4.70;;;4.30;1.00;;;;;;4904533;28;20563;-75
2021/03/16 04:17:45;;;;;;;6.05;5.10;;;4.30;1.00;;;;;;4914764;29;20332;-76
2021/03/16 04:20:13;;;;;;;4.22;3.83;;;4.30;1.00;;;;;;4895541;28;20356;-76
2021/03/16 04:22:40;;;;;;;5.55;4.40;;;4.30;1.00;;;;;;4908137;29;20242;-77
2021/03/16 04:25:08;;;;;;;5.65;5.03;;;4.40;1.00;;;;;;4892852;29;20234;-77
2021/03/16 04:27:34;;;;;;;4.90;4.50;;;4.40;1.00;;;;;;4905400;28;20227;-75
2021/03/16 04:30:02;;;;;;;6.07;4.65;;;4.50;1.00;;;;;;4905073;29;20268;-73
2021/03/16 04:32:28;;;;;;;6.93;5.20;;;4.50;1.00;;;;;;4901119;28;20225;-75
2021/03/16 04:34:54;;;;;;;8.10;5.30;;;4.50;1.00;;;;;;4910270;29;20238;-76
2021/03/16 04:37:20;;;;;;;5.82;4.60;;;4.50;1.00;;;;;;4898342;28;20712;-76
2021/03/16 04:39:47;;;;;;;5.65;5.13;;;4.50;1.00;;;;;;4908492;29;20230;-75
2021/03/16 04:42:13;;;;;;;7.40;5.97;;;4.50;1.00;;;;;;4894317;29;20241;-76
2021/03/16 04:44:39;;;;;;;7.03;5.03;;;4.50;1.00;;;;;;4905278;28;20258;-75
2021/03/16 04:47:06;;;;;;;6.22;5.70;;;4.60;1.00;;;;;;4900768;29;20973;-74
2021/03/16 04:49:32;;;;;;;6.97;5.05;;;4.60;1.00;;;;;;4913769;28;20264;-75
2021/03/16 04:51:58;;;;;;;6.95;5.50;;;4.60;1.00;;;;;;4899768;28;20233;-75
2021/03/16 04:54:25;;;;;;;6.30;5.32;;;4.60;1.00;;;;;;4896205;29;20333;-74
2021/03/16 04:56:54;;;;;;;5.88;5.28;;;4.60;1.00;;;;;;4899645;28;21185;-76
2021/03/16 04:59:20;;;;;;;5.82;5.22;;;4.60;1.00;;;;;;4895353;29;20237;-76
2021/03/16 05:01:46;;;;;;;10.10;6.03;;;4.60;1.00;;;;;;4902284;28;20230;-74
2021/03/16 05:04:13;;;;;;;8.95;5.97;;;4.60;1.00;;;;;;4909330;29;20918;-76
2021/03/16 05:06:40;;;;;;;8.75;5.70;;;4.60;1.00;;;;;;4899835;28;20222;-76
2021/03/16 05:09:06;;;;;;;8.32;5.10;;;4.60;1.00;;;;;;4911590;29;21250;-76
2021/03/16 05:11:32;;;;;;;6.82;5.03;;;4.60;1.00;;;;;;4910773;29;20233;-74
2021/03/16 05:13:59;;;;;;;5.50;4.60;;;4.60;1.00;;;;;;4899987;28;20226;-76
2021/03/16 05:16:25;;;;;;;7.28;5.65;;;4.60;1.00;;;;;;4894953;29;20317;-75
2021/03/16 05:18:51;;;;;;;5.47;4.65;;;4.60;1.00;;;;;;4881610;29;20230;-75
2021/03/16 05:21:18;;;;;;;8.18;4.75;;;4.60;1.00;;;;;;4908752;29;20690;-75
2021/03/16 05:23:44;;;;;;;5.40;4.03;;;4.60;1.00;;;;;;4898918;28;20718;-74
2021/03/16 05:26:11;;;;;;;8.35;5.20;;;4.60;1.00;;;;;;4909243;29;20969;-76
2021/03/16 05:28:37;;;;;;;7.47;5.13;;;4.60;1.00;;;;;;4899836;29;20801;-75
2021/03/16 05:31:03;;;;;;;5.45;4.70;;;4.60;1.00;;;;;;4914139;28;21008;-73
2021/03/16 05:33:29;;;;;;;4.70;3.95;;;4.60;1.00;;;;;;4886450;29;21064;-76
2021/03/16 05:35:55;;;;;;;5.65;4.13;;;4.70;1.00;;;;;;4910967;28;20236;-75
2021/03/16 05:38:22;;;;;;;5.05;4.22;;;4.70;1.00;;;;;;4902454;28;20241;-75
2021/03/16 05:40:49;;;;;;;4.90;4.40;;;4.70;1.00;;;;;;4916756;28;20265;-75
2021/03/16 05:43:16;;;;;;;6.72;4.20;;;4.70;1.00;;;;;;4902242;28;22302;-74
2021/03/16 05:45:42;;;;;;;4.43;4.00;;;4.70;1.00;;;;;;4915660;29;20320;-77
2021/03/16 05:48:10;;;;;;;4.03;3.70;;;4.70;1.00;;;;;;4905594;28;20228;-73
2021/03/16 05:50:37;;;;;;;5.70;4.47;;;4.80;1.00;;;;;;4916591;29;20237;-75
2021/03/16 05:53:05;;;;;;;5.75;4.40;;;4.70;1.00;;;;;;4919233;28;20226;-74
2021/03/16 05:55:32;;;;;;;5.03;4.20;;;4.80;1.00;;;;;;4907545;28;23409;-74
2021/03/16 05:57:59;;;;;;;4.93;3.90;;;4.80;1.00;;;;;;4920359;29;20230;-72
2021/03/16 06:00:27;;;;;;;5.43;3.88;;;4.70;1.00;;;;;;4906634;28;20233;-74
2021/03/16 06:02:53;;;;;;;5.43;3.90;;;4.70;1.00;;;;;;4923310;29;20238;-75
2021/03/16 06:05:19;;;;;;;3.75;3.45;;;4.70;1.00;;;;;;4898243;29;20237;-74
2021/03/16 06:07:49;;;;;;;4.43;3.50;;;4.60;1.00;;;;;;4926497;29;20233;-73
2021/03/16 06:10:18;;;;;;;5.78;3.33;;;4.60;1.00;;;;;;4913596;28;20237;-73
2021/03/16 06:12:45;;;;;;;4.53;3.38;;;4.60;1.00;;;;;;4925765;29;20957;-75
2021/03/16 06:15:13;;;;;;;4.38;3.78;;;4.60;1.00;;;;;;4929320;29;20285;-74
2021/03/16 06:17:44;;;;;;;4.32;3.92;;;4.60;1.00;;;;;;4937868;28;20226;-74
2021/03/16 06:20:12;;;;;;;3.80;3.40;;;4.70;1.00;;;;;;4916734;29;22644;-76
2021/03/16 06:22:38;;;;;;;8.50;4.20;;;4.70;1.00;;;;;;4923638;28;20260;-74
2021/03/16 06:25:06;;;;;;;4.90;4.47;;;4.80;1.00;;;;;;4909339;29;20290;-75
2021/03/16 06:27:33;;;;;;;4.72;3.85;;;4.80;1.00;;;;;;4924755;28;20280;-74
2021/03/16 06:30:00;;;;;;;5.95;5.32;;;4.80;1.00;;;;;;4913129;28;20229;-74
2021/03/16 06:32:32;;;;;;;4.35;3.95;;;4.90;1.00;;;;;;4924739;29;20222;-74
2021/03/16 06:35:00;;;;;;;4.65;3.65;;;4.80;1.00;;;;;;4913285;28;20279;-76
2021/03/16 06:37:26;;;;;;;5.32;4.93;;;4.90;1.00;;;;;;4930531;29;20863;-74
2021/03/16 06:39:54;;;;;;;6.95;4.40;;;4.90;1.00;;;;;;4922936;28;20989;-75
2021/03/16 06:42:22;;;;;;;6.30;4.70;;;4.90;1.00;;;;;;4907080;28;20260;-76
2021/03/16 06:44:58;;;;;;;4.82;4.18;;;4.90;1.00;;;;;;4924955;28;20227;-74
2021/03/16 06:47:25;;;;;;;6.70;4.65;;;4.90;1.00;;;;;;4931760;29;20244;-73
2021/03/16 06:49:52;;;;;;;4.80;3.72;;;4.90;1.00;;;;;;4935378;28;20228;-77
2021/03/16 06:52:19;;;;;;;4.75;4.30;;;4.90;1.00;;;;;;4911843;28;20231;-77
2021/03/16 06:54:45;;;;;;;9.73;5.70;;;4.90;1.00;;;;;;4924265;29;20236;-79
2021/03/16 06:57:12;;;;;;;6.95;5.15;;;4.90;1.00;;;;;;4910517;29;20234;-80
2021/03/16 06:59:39;;;;;;;8.02;5.35;;;5.00;1.00;;;;;;4926880;29;20226;-76
2021/03/16 07:02:15;;;;;;;4.95;4.18;;;5.00;1.00;;;;;;4897146;29;21045;-78
2021/03/16 07:04:44;;;;;;;4.85;4.40;;;5.00;1.00;;;;;;4924949;29;20873;-79
2021/03/16 07:07:11;;;;;;;9.82;4.68;;;5.00;1.00;;;;;;4910663;28;20262;-79
2021/03/16 07:09:38;;;;;;;8.38;4.95;;;5.10;1.00;;;;;;4927696;29;20289;-78
2021/03/16 07:12:09;;;;;;;6.18;4.63;;;5.10;1.00;;;;;;4911713;29;20228;-78
2021/03/16 07:14:36;;;;;;;7.20;4.95;;;5.10;1.00;;;;;;4923195;28;20257;-80
2021/03/16 07:17:03;;;;;;;6.50;4.20;;;5.10;1.00;;;;;;4902766;29;23011;-77
2021/03/16 07:19:30;;;;;;;7.10;4.10;;;5.10;1.00;;;;;;4922674;28;20322;-77
2021/03/16 07:21:59;;;;;;;10.00;5.30;;;5.10;1.00;;;;;;4915019;29;20241;-77
2021/03/16 07:24:30;;;;;;;13.65;5.20;;;5.10;1.00;;;;;;4934458;28;20250;-77
2021/03/16 07:26:56;;;;;;;10.85;5.68;;;5.10;1.00;;;;;;4930723;28;20225;-76
2021/03/16 07:29:23;;;;;;;6.00;4.35;;;5.10;1.00;;;;;;4930472;28;20694;-77
2021/03/16 07:31:50;;;;;;;6.75;4.43;;;5.10;1.00;;;;;;4923915;28;20230;-77
2021/03/16 07:34:19;;;;;;;7.82;5.40;;;5.10;1.00;;;;;;4921540;28;20234;-77
2021/03/16 07:36:46;;;;;;;5.57;4.05;;;5.20;1.00;;;;;;4923224;29;20894;-78
2021/03/16 07:39:18;;;;;;;7.70;4.93;;;5.20;1.00;;;;;;4918599;28;20379;-79
2021/03/16 07:41:45;;;;;;;5.85;4.38;;;5.30;1.00;;;;;;4923573;28;20234;-80
2021/03/16 07:44:14;;;;;;;7.15;4.90;;;5.30;1.00;;;;;;4909980;28;21276;-78
2021/03/16 07:46:42;;;;;;;12.57;5.53;;;5.50;1.00;;;;;;4919896;29;20753;-78
2021/03/16 07:49:10;;;;;;;8.70;4.35;;;5.60;1.00;;;;;;4912867;28;20229;-79
2021/03/16 07:51:40;;;;;;;7.60;4.65;;;5.70;1.00;;;;;;4917196;29;20228;-79
2021/03/16 07:54:08;;;;;;;5.93;3.85;;;5.80;1.00;;;;;;4906326;28;20233;-78
2021/03/16 07:56:36;;;;;;;8.32;4.13;;;5.80;1.00;;;;;;4926011;29;20225;-78
2021/03/16 07:59:04;;;;;;;6.55;4.35;;;5.80;1.00;;;;;;4914435;28;20218;-78
2021/03/16 08:01:31;;;;;;;7.47;4.50;;;5.80;1.00;;;;;;4927918;29;20229;-78
2021/03/16 08:04:05;;;;;;;11.77;7.18;;;5.70;1.00;;;;;;4917532;29;20324;-77
2021/03/16 08:06:33;;;;;;;7.47;5.82;;;5.70;1.00;;;;;;4919834;28;20258;-80
2021/03/16 08:09:00;;;;;;;6.38;4.95;;;5.80;1.00;;;;;;4900244;29;20237;-77
2021/03/16 08:11:38;;;;;;;9.02;4.53;;;5.80;1.00;;;;;;4926346;28;20245;-77
2021/03/16 08:14:05;;;;;;;7.35;4.75;;;5.90;1.00;;;;;;4896601;29;20568;-79
2021/03/16 08:16:37;;;;;;;5.57;3.90;;;5.90;1.00;;;;;;4923915;28;20253;-78
2021/03/16 08:19:11;;;;;;;7.05;4.60;;;5.90;1.00;;;;;;4912399;29;20225;-78
2021/03/16 08:21:38;;;;;;;7.22;4.30;;;5.90;1.00;;;;;;4921773;29;20225;-80
2021/03/16 08:24:07;;;;;;;8.13;4.20;;;5.90;1.00;;;;;;4922439;28;20241;-77
2021/03/16 08:26:41;;;;;;;8.05;4.78;;;5.90;1.00;;;;;;4895725;29;20237;-77
2021/03/16 08:29:08;;;;;;;8.88;4.95;;;5.90;1.00;;;;;;4925133;28;20226;-77
2021/03/16 08:31:35;;;;;;;8.10;4.28;;;6.00;1.00;;;;;;4922071;29;21121;-78
2021/03/16 08:34:02;;;;;;;8.45;4.82;;;6.00;1.00;;;;;;4924606;28;20224;-78
2021/03/16 08:36:31;;;;;;;8.32;4.32;;;5.90;1.00;;;;;;4911304;28;20239;-78
2021/03/16 08:38:58;;;;;;;7.38;4.25;;;5.80;1.00;;;;;;4922638;29;20288;-78
2021/03/16 08:41:24;;;;;;;6.43;4.63;;;5.80;1.00;;;;;;4910014;28;20265;-79
2021/03/16 08:43:52;;;;;;;4.80;3.65;;;5.80;1.00;;;;;;4921946;29;23139;-73
2021/03/16 08:46:28;;;;;;;8.82;6.20;;;5.90;1.00;;;;;;4897611;28;20225;-74
2021/03/16 08:48:55;;;;;;;10.15;5.32;;;5.90;1.00;;;;;;4911003;29;20796;-74
2021/03/16 08:51:23;;;;;;;8.15;4.97;;;6.00;1.00;;;;;;4899653;28;20229;-75
2021/03/16 08:53:49;;;;;;;4.43;4.00;;;6.10;1.00;;;;;;4912188;29;20221;-73
2021/03/16 08:56:20;;;;;;;8.45;4.18;;;6.10;1.00;;;;;;4901501;29;20361;-75
2021/03/16 08:58:46;;;;;;;4.55;3.78;;;6.10;1.00;;;;;;4913942;28;20232;-74
2021/03/16 09:01:24;;;;;;;9.25;4.68;;;6.00;1.00;;;;;;4902406;28;20264;-76
2021/03/16 09:03:51;;;;;;;4.30;3.67;;;6.00;1.00;;;;;;4910619;28;20253;-75
2021/03/16 09:06:18;;;;;;;9.88;4.95;;;6.00;1.00;;;;;;4896426;29;20250;-74
2021/03/16 09:08:49;;;;;;;8.55;3.83;;;6.00;1.00;;;;;;4912558;28;20225;-73
2021/03/16 09:11:27;;;;;;;6.35;3.20;;;6.00;1.00;;;;;;4902540;29;20344;-74
2021/03/16 09:13:53;;;;;;;5.53;3.63;;;6.00;1.00;;;;;;4916538;29;20250;-74
2021/03/16 09:16:22;;;;;;;4.50;3.22;;;5.90;1.00;;;;;;4913139;28;20245;-72
2021/03/16 09:18:49;;;;;;;5.65;4.43;;;6.00;1.00;;;;;;4919228;29;20230;-76
2021/03/16 09:21:15;;;;;;;7.95;6.10;;;6.10;1.00;;;;;;4914200;28;20309;-74
2021/03/16 09:23:42;;;;;;;7.18;4.22;;;6.30;1.00;;;;;;4900618;28;20236;-72
2021/03/16 09:26:08;;;;;;;10.60;4.30;;;6.40;1.00;;;;;;4909237;28;20256;-75
2021/03/16 09:28:35;;;;;;;6.63;3.72;;;6.50;1.00;;;;;;4887637;29;20214;-75
2021/03/16 09:31:01;;;;;;;5.15;3.42;;;6.70;1.00;;;;;;4913433;29;20221;-74
2021/03/16 09:33:29;;;;;;;7.03;4.30;;;6.80;1.00;;;;;;4902868;28;20236;-73
2021/03/16 09:35:56;;;;;;;5.22;3.72;;;7.20;1.00;;;;;;4914912;29;20244;-77
2021/03/16 09:38:22;;;;;;;6.05;3.85;;;7.50;1.00;;;;;;4906695;28;20891;-78
2021/03/16 09:40:48;;;;;;;4.82;3.22;;;7.50;1.00;;;;;;4904560;29;20226;-78
2021/03/16 09:43:20;;;;;;;6.85;3.70;;;7.50;1.00;;;;;;4912861;28;20241;-76
2021/03/16 09:45:54;;;;;;;5.03;3.20;;;7.80;1.00;;;;;;4919074;29;20237;-77
2021/03/16 09:48:20;;;;;;;7.05;3.05;;;9.30;1.00;;;;;;4909242;29;20233;-79
2021/03/16 09:50:48;;;;;;;9.30;2.97;;;10.20;1.00;;;;;;4927269;28;20338;-77
2021/03/16 09:53:16;;;;;;;5.75;2.53;;;10.20;1.00;;;;;;4931745;29;20234;-77
2021/03/16 09:55:43;;;;;;;6.15;3.65;;;9.90;1.00;;;;;;4945142;28;20235;-78
2021/03/16 09:58:20;;;;;;;3.70;2.50;;;9.50;1.00;;;;;;4914463;29;20230;-77
2021/03/16 10:00:48;;;;;;;2.65;2.45;;;10.10;1.00;;;;;;4943525;28;20226;-77
2021/03/16 10:03:16;;;;;;;8.65;3.17;;;10.10;1.00;;;;;;4926972;29;20264;-80
2021/03/16 10:05:42;;;;;;;6.25;3.45;;;9.80;1.00;;;;;;4938180;29;20290;-77
2021/03/16 10:08:10;;;;;;;4.60;2.20;;;9.50;1.00;;;;;;4918391;28;20325;-76
2021/03/16 10:10:38;;;;;;;6.35;2.35;;;9.50;1.00;;;;;;4915327;29;20236;-77
2021/03/16 10:13:06;;;;;;;5.35;2.10;;;9.60;1.00;;;;;;4895902;29;21170;-78
2021/03/16 10:15:35;;;;;;;4.70;3.10;;;9.50;1.00;;;;;;4896767;29;20265;-78
2021/03/16 10:18:03;;;;;;;4.35;3.00;;;9.30;1.00;;;;;;4900935;29;20462;-79
2021/03/16 10:20:32;;;;;;;4.03;3.13;;;9.20;1.00;;;;;;4915683;28;20226;-78
2021/03/16 10:23:00;;;;;;;5.82;3.05;;;9.10;1.00;;;;;;4919055;29;20280;-79
2021/03/16 10:25:30;;;;;;;3.83;2.55;;;9.00;1.00;;;;;;4886916;29;20234;-77
2021/03/16 10:27:59;;;;;;;5.43;2.58;;;8.80;1.00;;;;;;4917873;29;21028;-78
2021/03/16 10:30:32;;;;;;;6.32;2.72;;;8.60;1.00;;;;;;4892849;29;20257;-78
2021/03/16 10:32:59;;;;;;;4.57;3.08;;;8.40;1.00;;;;;;4919716;28;20675;-78
2021/03/16 10:35:26;;;;;;;3.53;2.40;;;8.70;1.00;;;;;;4908592;28;20233;-78
2021/03/16 10:37:53;;;;;;;6.13;3.35;;;10.00;1.00;;;;;;4917427;29;20317;-78
2021/03/16 10:40:19;;;;;;;3.70;3.00;;;10.50;1.00;;;;;;4907924;29;21490;-78
2021/03/16 10:42:47;;;;;;;5.32;3.63;;;10.50;1.00;;;;;;4918735;28;20235;-78
2021/03/16 10:45:13;;;;;;;3.50;2.42;;;10.80;1.00;;;;;;4911188;29;21270;-79
2021/03/16 10:47:41;;;;;;;7.00;2.85;;;10.50;1.00;;;;;;4923613;28;20235;-78
2021/03/16 10:50:08;;;;;;;5.32;3.35;;;10.20;1.00;;;;;;4918276;29;22072;-78
2021/03/16 10:52:34;;;;;;;4.20;2.47;;;10.20;1.00;;;;;;4924668;28;20302;-79
2021/03/16 10:55:01;;;;;;;6.72;3.13;;;10.50;1.00;;;;;;4934416;29;20966;-78
2021/03/16 10:57:27;;;;;;;6.35;2.85;;;10.50;1.00;;;;;;4926632;29;20235;-78
2021/03/16 10:59:54;;;;;;;4.67;2.10;;;10.40;1.00;;;;;;4926116;28;20240;-78
2021/03/16 11:02:20;;;;;;;3.25;2.55;;;10.90;1.00;;;;;;4919550;29;20435;-78
2021/03/16 11:04:47;;;;;;;3.30;2.17;;;11.00;1.00;;;;;;4927023;28;20991;-78
2021/03/16 11:07:13;;;;;;;3.60;2.60;;;11.30;1.00;;;;;;4911387;28;20419;-77
2021/03/16 11:09:39;;;;;;;2.77;2.23;;;12.30;1.00;;;;;;4923467;28;20549;-78
2021/03/16 11:12:06;;;;;;;6.50;2.70;;;12.50;1.00;;;;;;4906105;29;20469;-78
2021/03/16 11:14:32;;;;;;;3.80;2.50;;;12.10;1.00;;;;;;4918509;29;20304;-78
2021/03/16 11:16:59;;;;;;;4.00;2.47;;;11.90;1.00;;;;;;4914489;28;20897;-78
2021/03/16 11:19:25;;;;;;;8.43;2.80;;;11.80;1.00;;;;;;4923321;29;20522;-78
2021/03/16 11:21:52;;;;;;;5.32;2.83;;;12.00;1.00;;;;;;4912479;28;21206;-78
2021/03/16 11:24:19;;;;;;;5.10;2.60;;;12.00;1.00;;;;;;4925685;29;20247;-78
2021/03/16 11:26:45;;;;;;;8.60;2.70;;;11.70;1.00;;;;;;4898586;28;20966;-79
2021/03/16 11:29:11;;;;;;;2.97;2.03;;;11.40;1.00;;;;;;4928133;29;20460;-78
2021/03/16 11:31:38;;;;;;;7.35;2.17;;;11.30;1.00;;;;;;4919172;28;20446;-77
2021/03/16 11:34:05;;;;;;;2.55;1.88;;;11.10;1.00;;;;;;4926314;28;20232;-77
2021/03/16 11:36:31;;;;;;;3.30;2.58;;;10.80;1.00;;;;;;4929732;29;21284;-79
2021/03/16 11:38:58;;;;;;;5.82;2.63;;;10.50;1.00;;;;;;4928831;28;20221;-78
2021/03/16 11:41:24;;;;;;;2.92;2.45;;;10.30;1.00;;;;;;4947191;29;20266;-77
2021/03/16 11:43:51;;;;;;;5.20;2.40;;;10.10;1.00;;;;;;4936025;29;20234;-80
2021/03/16 11:46:17;;;;;;;3.88;2.63;;;9.90;1.00;;;;;;4949983;28;20230;-79
2021/03/16 11:48:43;;;;;;;4.18;2.47;;;9.60;1.00;;;;;;4937265;28;20238;-78
2021/03/16 11:51:11;;;;;;;4.90;2.60;;;9.20;1.00;;;;;;4945485;28;20214;-78
2021/03/16 11:53:37;;;;;;;4.22;2.53;;;9.00;1.00;;;;;;4938187;28;20262;-77
2021/03/16 11:56:04;;;;;;;2.60;2.38;;;8.80;1.00;;;;;;4931475;29;20255;-81
2021/03/16 11:58:32;;;;;;;5.28;2.33;;;8.70;1.00;;;;;;4934531;29;20230;-80
2021/03/16 12:00:58;;;;;;;2.80;2.45;;;8.70;1.00;;;;;;4947410;29;20241;-77
2021/03/16 12:03:25;;;;;;;2.92;1.92;;;8.70;1.00;;;;;;4932306;28;20250;-78
2021/03/16 12:05:51;;;;;;;3.55;3.10;;;8.70;1.00;;;;;;4945117;29;20243;-78
2021/03/16 12:08:18;;;;;;;8.68;4.05;;;8.70;1.00;;;;;;4928466;28;20850;-80
2021/03/16 12:10:45;;;;;;;3.22;2.17;;;8.80;1.00;;;;;;4919718;29;20294;-79
2021/03/16 12:13:11;;;;;;;2.78;2.40;;;8.80;1.00;;;;;;4915304;28;20293;-80
2021/03/16 12:15:38;;;;;;;4.38;2.92;;;8.90;1.00;;;;;;4941114;28;20213;-80
2021/03/16 12:18:04;;;;;;;2.63;2.40;;;9.10;1.00;;;;;;4925684;29;20234;-80
2021/03/16 12:20:34;;;;;;;3.50;2.63;;;9.70;1.00;;;;;;4935005;28;20301;-81
2021/03/16 12:23:01;;;;;;;3.25;2.65;;;10.00;1.00;;;;;;4932314;29;20285;-78
2021/03/16 12:25:28;;;;;;;3.95;2.25;;;10.10;1.00;;;;;;4909151;29;20226;-79
2021/03/16 12:27:54;;;;;;;6.13;2.80;;;9.90;1.00;;;;;;4923598;29;20227;-78
2021/03/16 12:30:21;;;;;;;3.88;2.35;;;9.60;1.00;;;;;;4918869;28;20368;-78
2021/03/16 12:32:48;;;;;;;3.83;2.15;;;9.20;1.00;;;;;;4926291;29;21025;-79
2021/03/16 12:35:15;;;;;;;2.95;2.50;;;8.90;1.00;;;;;;4896156;29;20246;-81
2021/03/16 12:37:41;;;;;;;3.45;2.70;;;8.80;1.00;;;;;;4910813;29;21491;-78
2021/03/16 12:40:09;;;;;;;4.78;2.35;;;8.90;1.00;;;;;;4913872;29;20243;-78
2021/03/16 12:42:36;;;;;;;3.92;2.38;;;9.10;1.00;;;;;;4899474;29;20232;-81
2021/03/16 12:45:07;;;;;;;6.18;3.10;;;9.40;1.00;;;;;;4904120;29;21084;-79
2021/03/16 12:47:34;;;;;;;5.88;2.90;;;9.40;1.00;;;;;;4920783;28;20429;-79
2021/03/16 12:50:01;;;;;;;5.05;3.33;;;9.30;1.00;;;;;;4890117;29;21130;-80
2021/03/16 12:52:27;;;;;;;12.70;4.47;;;9.20;1.00;;;;;;4917923;28;20297;-80
2021/03/16 12:54:54;;;;;;;3.90;2.45;;;9.20;1.00;;;;;;4896103;29;20238;-77
2021/03/16 12:57:20;;;;;;;6.65;3.30;;;9.20;1.00;;;;;;4889104;29;20229;-79
2021/03/16 12:59:47;;;;;;;4.15;3.75;;;9.30;1.00;;;;;;4897598;29;20226;-78
2021/03/16 13:02:13;;;;;;;4.07;3.38;;;9.30;1.00;;;;;;4890380;29;21281;-80
2021/03/16 13:04:39;;;;;;;6.93;3.35;;;9.50;1.00;;;;;;4898586;29;20297;-80
2021/03/16 13:07:06;;;;;;;4.68;3.10;;;9.80;1.00;;;;;;4885395;29;20240;-80